Time;durP1;ratioP1;P1;durP2;ratioP2;P2;SDS_P1;SDS_P2;PMS_P1;PMS_P2;Temp;Humidity;BMP_temperature;BMP_pressure;BME280_temperature;BME280_humidity;BME280_pressure;Samples;Min_cycle;Max_cycle;Signal;HPM_P1;HPM_P2
2021/07/30 00:02:19;;;;;;;29.55;4.97;;;15.40;99.90;;;;;;5013117;28;20057;-85
2021/07/30 00:04:46;;;;;;;38.22;5.40;;;15.40;99.90;;;;;;5036934;28;20050;-85
2021/07/30 00:07:13;;;;;;;32.40;5.25;;;15.30;99.90;;;;;;5034291;28;20052;-84
2021/07/30 00:09:40;;;;;;;27.73;4.78;;;15.30;99.90;;;;;;5035037;28;20045;-85
2021/07/30 00:12:07;;;;;;;28.42;5.28;;;15.20;99.90;;;;;;5034304;28;20053;-85
2021/07/30 00:14:34;;;;;;;24.10;4.30;;;15.20;99.90;;;;;;5031982;28;20049;-85
2021/07/30 00:17:01;;;;;;;26.08;4.25;;;15.10;99.90;;;;;;5034012;28;20045;-86
2021/07/30 00:19:28;;;;;;;21.98;4.03;;;15.10;99.90;;;;;;5016402;28;20041;-85
2021/07/30 00:21:55;;;;;;;25.58;4.15;;;15.00;99.90;;;;;;5033241;28;20049;-85
2021/07/30 00:24:23;;;;;;;32.92;5.25;;;14.90;99.90;;;;;;5034160;28;20484;-85
2021/07/30 00:26:50;;;;;;;29.85;4.57;;;14.90;99.90;;;;;;5023778;28;20045;-85
2021/07/30 00:29:18;;;;;;;32.83;4.35;;;14.80;99.90;;;;;;5012808;28;20052;-85
2021/07/30 00:31:45;;;;;;;21.88;4.85;;;14.80;99.90;;;;;;5032471;28;20056;-85
2021/07/30 00:34:12;;;;;;;23.10;4.35;;;14.80;99.90;;;;;;5029408;28;20107;-85
2021/07/30 00:36:39;;;;;;;30.50;4.45;;;14.70;99.90;;;;;;5017361;28;20045;-85
2021/07/30 00:39:06;;;;;;;30.88;4.28;;;14.60;99.90;;;;;;5015866;28;20052;-85
2021/07/30 00:41:39;;;;;;;27.20;4.68;;;14.60;99.90;;;;;;5012725;28;20045;-85
2021/07/30 00:44:08;;;;;;;26.90;4.65;;;14.60;99.90;;;;;;5030146;28;20052;-85
2021/07/30 00:46:36;;;;;;;33.63;4.53;;;14.50;99.90;;;;;;5032945;28;20049;-86
2021/07/30 00:49:04;;;;;;;29.95;5.15;;;14.50;99.90;;;;;;5035407;28;20137;-85
2021/07/30 00:51:32;;;;;;;31.05;4.25;;;14.50;99.90;;;;;;5033429;28;20044;-85
2021/07/30 00:53:59;;;;;;;26.00;4.40;;;14.40;99.90;;;;;;5034342;28;20055;-85
2021/07/30 00:56:26;;;;;;;21.42;4.68;;;14.40;99.90;;;;;;5031825;28;20373;-85
2021/07/30 00:58:53;;;;;;;23.38;4.53;;;14.30;99.90;;;;;;5036059;28;20049;-85
2021/07/30 01:01:20;;;;;;;26.10;3.90;;;14.30;99.90;;;;;;5035498;28;20061;-85
2021/07/30 01:03:48;;;;;;;25.45;4.65;;;14.30;99.90;;;;;;5033841;28;20489;-84
2021/07/30 01:06:15;;;;;;;29.70;4.75;;;14.20;99.90;;;;;;5033359;28;20493;-85
2021/07/30 01:08:42;;;;;;;24.35;5.32;;;14.20;99.90;;;;;;5033750;28;20055;-85
2021/07/30 01:11:09;;;;;;;18.40;4.30;;;14.20;99.90;;;;;;5033355;28;20076;-85
2021/07/30 01:13:36;;;;;;;22.73;4.32;;;14.20;99.90;;;;;;5035529;28;20053;-85
2021/07/30 01:16:04;;;;;;;21.83;4.82;;;14.20;99.90;;;;;;5033826;28;20400;-85
2021/07/30 01:18:31;;;;;;;31.25;5.20;;;14.10;99.90;;;;;;5018793;28;20041;-85
2021/07/30 01:21:18;;;;;;;23.08;4.30;;;14.10;99.90;;;;;;5017418;28;20042;-85
2021/07/30 01:23:47;;;;;;;17.50;4.63;;;14.10;99.90;;;;;;5033234;28;20038;-85
2021/07/30 01:26:15;;;;;;;33.13;5.25;;;14.10;99.90;;;;;;5043851;28;20057;-85
2021/07/30 01:28:43;;;;;;;29.65;4.72;;;14.10;99.90;;;;;;5039859;28;20048;-85
2021/07/30 01:31:10;;;;;;;19.30;4.65;;;14.10;99.90;;;;;;5037292;28;20045;-86
2021/07/30 01:33:37;;;;;;;20.25;4.38;;;14.10;99.90;;;;;;5037845;28;20045;-85
2021/07/30 01:36:04;;;;;;;23.42;4.50;;;14.10;99.90;;;;;;5035682;28;20049;-86
2021/07/30 01:38:31;;;;;;;23.98;5.20;;;14.10;99.90;;;;;;5033232;28;20046;-85
2021/07/30 01:41:08;;;;;;;22.88;5.47;;;14.10;99.90;;;;;;5037756;28;20049;-86
2021/07/30 01:43:41;;;;;;;37.10;5.18;;;14.10;99.90;;;;;;5021790;28;20041;-85
2021/07/30 01:46:08;;;;;;;24.58;4.78;;;14.00;99.90;;;;;;5037184;28;20050;-85
2021/07/30 01:48:35;;;;;;;22.73;4.70;;;14.00;99.90;;;;;;5021380;28;20490;-85
2021/07/30 01:51:03;;;;;;;22.73;4.63;;;14.00;99.90;;;;;;5036050;28;20049;-85
2021/07/30 01:53:31;;;;;;;25.80;5.70;;;14.00;99.90;;;;;;5033679;28;20056;-86
2021/07/30 01:56:03;;;;;;;24.02;5.70;;;14.00;99.90;;;;;;5017482;28;20402;-85
2021/07/30 01:58:34;;;;;;;22.77;4.70;;;14.00;99.90;;;;;;5036426;28;20481;-86
2021/07/30 02:01:05;;;;;;;27.75;4.95;;;14.10;99.90;;;;;;5037411;28;20057;-85
2021/07/30 02:03:32;;;;;;;25.05;4.32;;;14.10;99.90;;;;;;5036108;28;20132;-85
2021/07/30 02:06:05;;;;;;;25.42;4.40;;;14.10;99.90;;;;;;5038117;28;20083;-85
2021/07/30 02:08:32;;;;;;;25.83;4.65;;;14.10;99.90;;;;;;5025224;28;20041;-85
2021/07/30 02:10:59;;;;;;;25.55;4.38;;;14.00;99.90;;;;;;5017089;28;20049;-85
2021/07/30 02:16:11;;;;;;;19.08;4.05;;;14.00;99.90;;;;;;5034858;28;20045;-85
2021/07/30 02:18:38;;;;;;;23.35;4.53;;;14.00;99.90;;;;;;5021223;28;20048;-86
2021/07/30 02:21:05;;;;;;;22.63;4.20;;;14.00;99.90;;;;;;5017511;28;20055;-85
2021/07/30 02:23:32;;;;;;;22.70;4.38;;;13.90;99.90;;;;;;5033642;28;20049;-85
2021/07/30 02:25:59;;;;;;;23.13;4.57;;;13.90;99.90;;;;;;5047897;28;20480;-85
2021/07/30 02:28:26;;;;;;;22.88;4.25;;;13.90;99.90;;;;;;5038008;28;20099;-86
2021/07/30 02:30:53;;;;;;;26.25;5.38;;;13.80;99.90;;;;;;5020750;28;20103;-86
2021/07/30 02:33:20;;;;;;;24.83;4.53;;;13.80;99.90;;;;;;5036117;28;20107;-85
2021/07/30 02:35:47;;;;;;;20.30;4.03;;;13.80;99.90;;;;;;5017998;28;20041;-85
2021/07/30 02:38:14;;;;;;;18.73;4.38;;;13.80;99.90;;;;;;5032694;28;20073;-85
2021/07/30 02:40:40;;;;;;;19.83;3.90;;;13.80;99.90;;;;;;5020839;28;20034;-86
2021/07/30 02:43:07;;;;;;;24.27;5.10;;;13.80;99.90;;;;;;5036052;28;20107;-86
2021/07/30 02:45:34;;;;;;;21.48;3.95;;;13.80;99.90;;;;;;5036476;28;20481;-86
2021/07/30 02:48:01;;;;;;;28.10;4.38;;;13.70;99.90;;;;;;5017459;28;20045;-86
2021/07/30 02:50:29;;;;;;;19.60;3.97;;;13.80;99.90;;;;;;5032478;28;20053;-86
2021/07/30 02:52:56;;;;;;;25.73;4.88;;;13.80;99.90;;;;;;5019310;28;20057;-85
2021/07/30 02:55:23;;;;;;;16.98;3.63;;;13.80;99.90;;;;;;5035204;28;20107;-85
2021/07/30 02:57:50;;;;;;;15.43;3.88;;;13.80;99.90;;;;;;5034648;28;20053;-86
2021/07/30 03:00:17;;;;;;;24.85;4.43;;;13.80;99.90;;;;;;5018228;28;20041;-85
2021/07/30 03:02:44;;;;;;;23.30;4.40;;;13.80;99.90;;;;;;5033268;28;20045;-85
2021/07/30 03:05:11;;;;;;;23.55;4.22;;;13.80;99.90;;;;;;5032445;28;20080;-85
2021/07/30 03:07:38;;;;;;;21.70;3.70;;;13.80;99.90;;;;;;5020612;28;20056;-85
2021/07/30 03:10:05;;;;;;;21.58;4.35;;;13.80;99.90;;;;;;5035381;28;20128;-85
2021/07/30 03:12:34;;;;;;;28.20;4.38;;;13.80;99.90;;;;;;5020119;28;20057;-85
2021/07/30 03:15:02;;;;;;;28.35;4.28;;;13.80;99.90;;;;;;5035974;28;20044;-86
2021/07/30 03:17:29;;;;;;;24.17;4.50;;;13.80;99.90;;;;;;5032168;28;20392;-85
2021/07/30 03:19:56;;;;;;;22.92;4.22;;;13.80;99.90;;;;;;5018814;28;20057;-85
2021/07/30 03:22:23;;;;;;;21.80;5.00;;;13.80;99.90;;;;;;5035992;28;20045;-85
2021/07/30 03:24:50;;;;;;;24.83;4.85;;;13.80;99.90;;;;;;5021460;28;20049;-85
2021/07/30 03:27:18;;;;;;;19.27;3.92;;;13.80;99.90;;;;;;5045875;28;20045;-84
2021/07/30 03:29:45;;;;;;;24.40;4.30;;;13.80;99.90;;;;;;5034419;28;20040;-85
2021/07/30 03:32:12;;;;;;;22.98;4.15;;;13.80;99.90;;;;;;5014389;28;20049;-85
2021/07/30 03:34:39;;;;;;;21.88;4.18;;;13.70;99.90;;;;;;5036476;28;20389;-85
2021/07/30 03:37:06;;;;;;;22.83;4.25;;;13.70;99.90;;;;;;5033699;28;20049;-85
2021/07/30 03:39:33;;;;;;;22.92;4.30;;;13.70;99.90;;;;;;5035466;28;20504;-85
2021/07/30 03:42:00;;;;;;;27.98;4.40;;;13.70;99.90;;;;;;5035514;28;20489;-85
2021/07/30 03:44:27;;;;;;;23.70;4.25;;;13.70;99.90;;;;;;5014157;28;20077;-85
2021/07/30 03:46:54;;;;;;;25.98;4.13;;;13.70;99.90;;;;;;5036172;28;20056;-85
2021/07/30 03:49:21;;;;;;;19.88;3.97;;;13.70;99.90;;;;;;5033876;28;20046;-85
2021/07/30 03:51:48;;;;;;;25.85;4.05;;;13.70;99.90;;;;;;5035192;28;20429;-85
2021/07/30 03:54:15;;;;;;;23.98;3.75;;;13.70;99.90;;;;;;5034429;28;20382;-85
2021/07/30 03:56:42;;;;;;;24.30;3.63;;;13.70;99.90;;;;;;5033362;28;20045;-85
2021/07/30 03:59:10;;;;;;;21.75;4.07;;;13.70;99.90;;;;;;5014348;28;20053;-85
2021/07/30 04:01:37;;;;;;;23.33;4.20;;;13.70;99.90;;;;;;5036165;28;20040;-85
2021/07/30 04:04:05;;;;;;;24.83;4.10;;;13.60;99.90;;;;;;5036343;28;20046;-85
2021/07/30 04:06:32;;;;;;;22.83;3.42;;;13.60;99.90;;;;;;5034877;28;20048;-85
2021/07/30 04:08:59;;;;;;;22.10;4.03;;;13.60;99.90;;;;;;5034994;28;20048;-85
2021/07/30 04:11:26;;;;;;;22.73;4.03;;;13.60;99.90;;;;;;5013491;28;20048;-85
2021/07/30 04:13:52;;;;;;;24.85;4.65;;;13.60;99.90;;;;;;5018594;28;20489;-85
2021/07/30 04:16:19;;;;;;;22.55;4.18;;;13.60;99.90;;;;;;5018550;28;20053;-85
2021/07/30 04:18:46;;;;;;;29.08;5.03;;;13.60;99.90;;;;;;5035076;28;20044;-85
2021/07/30 04:21:13;;;;;;;23.85;4.30;;;13.60;99.90;;;;;;5033960;28;20050;-85
2021/07/30 04:23:40;;;;;;;20.25;3.72;;;13.60;99.90;;;;;;5032864;28;20053;-85
2021/07/30 04:26:08;;;;;;;22.27;4.13;;;13.60;99.90;;;;;;5025500;28;20064;-85
2021/07/30 04:28:35;;;;;;;19.67;3.85;;;13.60;99.90;;;;;;5052080;28;20045;-85
2021/07/30 04:31:05;;;;;;;26.02;4.57;;;13.70;99.90;;;;;;5050052;28;20053;-85
2021/07/30 04:33:33;;;;;;;23.88;3.85;;;13.70;99.90;;;;;;5035013;28;20099;-85
2021/07/30 04:36:04;;;;;;;18.40;3.83;;;13.70;99.90;;;;;;5032562;28;20079;-85
2021/07/30 04:38:33;;;;;;;22.80;3.80;;;13.80;99.90;;;;;;5050369;28;20041;-85
2021/07/30 04:41:04;;;;;;;26.92;4.45;;;13.80;99.90;;;;;;5051305;28;20045;-85
2021/07/30 04:43:32;;;;;;;24.27;3.65;;;13.80;99.90;;;;;;5051675;28;20037;-85
2021/07/30 04:45:58;;;;;;;21.58;3.70;;;13.80;99.90;;;;;;5051904;28;20123;-85
2021/07/30 04:48:27;;;;;;;20.02;3.80;;;13.80;99.90;;;;;;5050223;28;20045;-85
2021/07/30 04:50:54;;;;;;;28.30;4.53;;;13.80;99.90;;;;;;5048782;28;20391;-85
2021/07/30 04:53:21;;;;;;;27.38;4.18;;;13.80;99.90;;;;;;5049347;28;20056;-85
2021/07/30 04:55:48;;;;;;;23.35;4.18;;;13.80;99.90;;;;;;5051143;28;20064;-85
2021/07/30 04:58:15;;;;;;;17.98;2.97;;;13.80;99.90;;;;;;5049175;28;20056;-85
2021/07/30 05:00:42;;;;;;;19.63;3.60;;;13.80;99.90;;;;;;5029440;28;20102;-85
2021/07/30 05:03:09;;;;;;;19.05;4.22;;;13.80;99.90;;;;;;5047883;28;20132;-85
2021/07/30 05:05:36;;;;;;;17.48;3.85;;;13.80;99.90;;;;;;5050048;28;20465;-85
2021/07/30 05:08:03;;;;;;;20.65;3.60;;;13.80;99.90;;;;;;5033010;28;20048;-85
2021/07/30 05:10:30;;;;;;;18.35;4.20;;;13.80;99.90;;;;;;5031099;28;20041;-85
2021/07/30 05:12:57;;;;;;;21.70;3.83;;;13.90;99.90;;;;;;5029423;28;20045;-85
2021/07/30 05:15:24;;;;;;;16.63;3.78;;;13.90;99.90;;;;;;5049313;28;20044;-86
2021/07/30 05:17:51;;;;;;;21.17;4.82;;;13.90;99.90;;;;;;5030188;28;20045;-85
2021/07/30 05:20:19;;;;;;;17.97;4.40;;;14.00;99.90;;;;;;5049164;28;20431;-85
2021/07/30 05:22:46;;;;;;;20.70;4.38;;;14.00;99.90;;;;;;5051876;28;20267;-89
2021/07/30 05:25:13;;;;;;;24.20;4.53;;;14.10;99.90;;;;;;5031494;28;20053;-84
2021/07/30 05:27:40;;;;;;;23.20;4.82;;;14.10;99.90;;;;;;5021681;28;20049;-88
2021/07/30 05:30:07;;;;;;;28.13;4.72;;;14.20;99.90;;;;;;5014686;28;20576;-84
2021/07/30 05:32:34;;;;;;;21.02;4.47;;;14.20;99.90;;;;;;5029935;28;20237;-85
2021/07/30 05:35:02;;;;;;;19.55;4.25;;;14.30;99.90;;;;;;5033371;28;20072;-85
2021/07/30 05:37:29;;;;;;;26.00;4.82;;;14.30;99.90;;;;;;5030514;28;20037;-85
2021/07/30 05:39:56;;;;;;;16.33;4.05;;;14.40;99.90;;;;;;5035014;28;20405;-85
2021/07/30 05:42:23;;;;;;;22.85;4.53;;;14.40;99.90;;;;;;5042448;28;20047;-85
2021/07/30 05:44:50;;;;;;;26.92;5.43;;;14.40;99.90;;;;;;5025951;28;20058;-84
2021/07/30 05:47:17;;;;;;;18.83;3.70;;;14.50;99.90;;;;;;5035745;28;20400;-85
2021/07/30 05:49:44;;;;;;;24.50;4.95;;;14.50;99.90;;;;;;5046855;28;20044;-85
2021/07/30 05:52:11;;;;;;;32.60;5.28;;;14.50;99.90;;;;;;5046923;28;20418;-84
2021/07/30 05:54:37;;;;;;;26.90;4.68;;;14.60;99.90;;;;;;5039936;28;20052;-85
2021/07/30 05:57:04;;;;;;;24.10;4.45;;;14.70;99.90;;;;;;5024793;28;20042;-84
2021/07/30 05:59:32;;;;;;;26.58;5.65;;;14.70;99.90;;;;;;5021363;28;20436;-84
2021/07/30 06:01:59;;;;;;;23.33;4.60;;;14.80;99.90;;;;;;5037542;28;20049;-84
2021/07/30 06:04:26;;;;;;;27.13;4.80;;;14.80;99.90;;;;;;5038835;28;20067;-85
2021/07/30 06:06:53;;;;;;;17.50;4.35;;;14.90;99.90;;;;;;5037784;28;20099;-84
2021/07/30 06:09:20;;;;;;;22.27;4.75;;;14.90;99.90;;;;;;5020483;28;20050;-86
2021/07/30 06:11:47;;;;;;;28.52;4.75;;;14.90;99.90;;;;;;5017241;28;20135;-86
2021/07/30 06:14:14;;;;;;;26.50;4.95;;;15.00;99.90;;;;;;5033086;28;20054;-85
2021/07/30 06:16:41;;;;;;;19.23;4.93;;;15.10;99.90;;;;;;5021447;28;20046;-85
2021/07/30 06:19:08;;;;;;;20.13;4.97;;;15.10;99.90;;;;;;5036340;28;20045;-85
2021/07/30 06:21:35;;;;;;;28.23;5.35;;;15.20;99.90;;;;;;5036949;28;20393;-85
2021/07/30 06:24:02;;;;;;;27.27;5.00;;;15.30;99.90;;;;;;5009933;28;20041;-85
2021/07/30 06:26:30;;;;;;;26.48;4.57;;;15.30;99.90;;;;;;5024801;28;20045;-84
2021/07/30 06:28:57;;;;;;;32.03;5.37;;;15.30;99.90;;;;;;5019667;28;20493;-85
2021/07/30 06:31:24;;;;;;;20.92;5.38;;;15.30;99.90;;;;;;5032752;28;20284;-85
2021/07/30 06:33:51;;;;;;;25.38;5.03;;;15.30;99.90;;;;;;5031096;28;20046;-85
2021/07/30 06:36:18;;;;;;;22.05;4.90;;;15.40;99.90;;;;;;5032229;28;20435;-85
2021/07/30 06:38:45;;;;;;;34.08;5.65;;;15.40;99.90;;;;;;5015207;28;20519;-87
2021/07/30 06:41:14;;;;;;;22.02;4.68;;;15.40;99.90;;;;;;5015892;28;20053;-86
2021/07/30 06:43:42;;;;;;;24.30;5.18;;;15.50;99.90;;;;;;5037814;28;20083;-86
2021/07/30 06:46:09;;;;;;;26.58;5.03;;;15.50;99.90;;;;;;5017560;28;20049;-86
2021/07/30 06:48:36;;;;;;;22.23;5.45;;;15.50;99.90;;;;;;5018652;28;20075;-86
2021/07/30 06:51:04;;;;;;;26.58;4.90;;;15.50;99.90;;;;;;5015414;28;20061;-87
2021/07/30 06:53:31;;;;;;;34.00;6.13;;;15.60;99.90;;;;;;5031565;28;20064;-87
2021/07/30 06:55:58;;;;;;;25.17;5.03;;;15.70;99.90;;;;;;5011832;28;20042;-84
2021/07/30 06:58:25;;;;;;;24.67;4.57;;;15.80;99.90;;;;;;5031861;28;20045;-85
2021/07/30 07:00:52;;;;;;;22.48;4.88;;;15.80;99.90;;;;;;5020302;28;20485;-85
2021/07/30 07:03:21;;;;;;;30.55;5.80;;;15.90;99.90;;;;;;5019640;28;20052;-84
2021/07/30 07:05:48;;;;;;;28.80;5.80;;;15.90;99.90;;;;;;5012798;28;20119;-85
2021/07/30 07:08:15;;;;;;;21.02;4.50;;;16.00;99.90;;;;;;5030983;28;20049;-84
2021/07/30 07:10:42;;;;;;;28.52;5.55;;;16.00;99.90;;;;;;5033272;28;20477;-85
2021/07/30 07:13:09;;;;;;;30.08;5.38;;;16.00;99.90;;;;;;5021092;28;20057;-85
2021/07/30 07:15:44;;;;;;;27.95;5.60;;;16.10;99.90;;;;;;5029691;28;20041;-85
2021/07/30 07:18:12;;;;;;;19.80;4.82;;;16.10;99.90;;;;;;5016520;28;20056;-85
2021/07/30 07:20:39;;;;;;;27.08;5.05;;;16.10;99.90;;;;;;5031920;28;20048;-85
2021/07/30 07:23:07;;;;;;;32.97;5.60;;;16.20;99.90;;;;;;5032500;28;20067;-86
2021/07/30 07:25:34;;;;;;;27.15;5.55;;;16.20;99.90;;;;;;5040600;28;20038;-85
2021/07/30 07:28:01;;;;;;;26.20;5.55;;;16.20;99.90;;;;;;5036430;28;20041;-85
2021/07/30 07:30:27;;;;;;;21.30;4.90;;;16.30;99.90;;;;;;5033741;28;20037;-85
2021/07/30 07:32:55;;;;;;;24.63;6.03;;;16.30;99.90;;;;;;5017982;28;20045;-85
2021/07/30 07:35:21;;;;;;;24.48;5.47;;;16.40;99.90;;;;;;5013352;28;20586;-85
2021/07/30 07:37:48;;;;;;;21.25;4.97;;;16.50;99.90;;;;;;5037489;28;20042;-85
2021/07/30 07:40:15;;;;;;;26.25;5.60;;;16.50;99.90;;;;;;5033578;28;20053;-85
2021/07/30 07:42:42;;;;;;;23.85;5.40;;;16.50;99.90;;;;;;5035351;28;20052;-85
2021/07/30 07:45:10;;;;;;;26.17;5.60;;;16.60;99.90;;;;;;5034850;28;20417;-85
2021/07/30 07:47:37;;;;;;;29.30;5.27;;;16.70;99.90;;;;;;5033263;28;20072;-85
2021/07/30 07:50:04;;;;;;;26.63;5.53;;;16.80;99.90;;;;;;5035445;28;20319;-85
2021/07/30 07:52:34;;;;;;;22.38;5.43;;;16.90;99.90;;;;;;5036648;28;20042;-85
2021/07/30 07:55:04;;;;;;;21.02;4.85;;;17.00;99.90;;;;;;5017093;28;20055;-85
2021/07/30 07:57:31;;;;;;;19.95;4.78;;;17.00;99.90;;;;;;5017672;28;20424;-85
2021/07/30 07:59:58;;;;;;;20.52;5.32;;;17.00;99.90;;;;;;5035235;28;20428;-85
2021/07/30 08:02:25;;;;;;;24.85;5.00;;;16.90;99.90;;;;;;5028761;28;20041;-85
2021/07/30 08:04:52;;;;;;;26.50;4.88;;;16.70;99.90;;;;;;5036998;28;20458;-85
2021/07/30 08:07:20;;;;;;;25.20;5.38;;;16.60;99.90;;;;;;5033392;28;20045;-85
2021/07/30 08:09:47;;;;;;;20.40;4.80;;;16.70;99.90;;;;;;5033461;28;20128;-85
2021/07/30 08:12:14;;;;;;;26.85;5.53;;;16.60;99.90;;;;;;5018186;28;20063;-85
2021/07/30 08:14:41;;;;;;;19.05;5.10;;;16.70;99.90;;;;;;5016043;28;20120;-86
2021/07/30 08:17:08;;;;;;;22.88;5.45;;;16.80;99.90;;;;;;5013418;28;20062;-85
2021/07/30 08:19:36;;;;;;;24.80;5.40;;;16.90;99.90;;;;;;5036193;28;20045;-85
2021/07/30 08:22:04;;;;;;;26.05;5.45;;;17.00;99.90;;;;;;5035071;28;20056;-86
2021/07/30 08:24:31;;;;;;;24.02;5.18;;;17.00;99.90;;;;;;5018716;28;20041;-85
2021/07/30 08:26:58;;;;;;;25.30;5.35;;;17.00;99.90;;;;;;5030644;28;20050;-85
2021/07/30 08:29:30;;;;;;;25.45;5.45;;;17.10;99.90;;;;;;5013478;28;20038;-85
2021/07/30 08:31:58;;;;;;;25.25;5.28;;;17.10;99.90;;;;;;5031761;28;20500;-85
2021/07/30 08:34:25;;;;;;;24.80;5.03;;;17.20;99.90;;;;;;5029952;28;20384;-85
2021/07/30 08:36:52;;;;;;;25.05;5.00;;;17.20;99.90;;;;;;5030428;28;20049;-85
2021/07/30 08:39:20;;;;;;;23.92;5.40;;;17.30;99.90;;;;;;5028651;28;20099;-85
2021/07/30 08:41:50;;;;;;;29.95;6.13;;;17.30;99.90;;;;;;5032521;28;20046;-84
2021/07/30 08:44:17;;;;;;;26.95;5.90;;;17.50;99.90;;;;;;5030509;28;20049;-85
2021/07/30 08:46:45;;;;;;;24.63;5.75;;;17.70;99.90;;;;;;5031517;28;20052;-85
2021/07/30 08:49:12;;;;;;;23.92;5.28;;;17.80;99.90;;;;;;5027944;28;20397;-85
2021/07/30 08:51:43;;;;;;;27.17;5.65;;;17.80;99.90;;;;;;5030123;28;20045;-85
2021/07/30 08:54:10;;;;;;;24.52;4.68;;;17.90;99.90;;;;;;5029638;28;20045;-84
2021/07/30 08:56:37;;;;;;;18.85;4.60;;;17.90;99.90;;;;;;5030245;28;20435;-85
2021/07/30 08:59:06;;;;;;;20.77;4.07;;;17.90;99.90;;;;;;5031189;28;20485;-84
2021/07/30 09:01:36;;;;;;;15.43;3.70;;;18.10;99.90;;;;;;5031665;28;20117;-85
2021/07/30 09:04:04;;;;;;;20.27;4.68;;;18.10;99.90;;;;;;5030219;28;20060;-85
2021/07/30 09:06:31;;;;;;;21.30;3.85;;;18.20;99.90;;;;;;5029882;28;20045;-85
2021/07/30 09:09:01;;;;;;;16.73;3.72;;;18.30;99.90;;;;;;5029996;28;20057;-85
2021/07/30 09:11:33;;;;;;;21.40;3.83;;;18.40;99.90;;;;;;5029314;28;20037;-85
2021/07/30 09:14:03;;;;;;;19.85;3.25;;;18.50;99.90;;;;;;5016287;28;20045;-85
2021/07/30 09:16:30;;;;;;;20.95;3.72;;;18.60;99.90;;;;;;5034066;28;20047;-85
2021/07/30 09:19:07;;;;;;;12.98;3.20;;;18.60;99.90;;;;;;5004876;28;20369;-84
2021/07/30 09:21:36;;;;;;;12.88;3.08;;;18.60;99.90;;;;;;5029983;28;20049;-87
2021/07/30 09:24:19;;;;;;;15.38;3.60;;;18.50;99.90;;;;;;5006745;28;20084;-87
2021/07/30 09:26:55;;;;;;;16.55;3.75;;;18.40;99.90;;;;;;5048660;28;20048;-87
2021/07/30 09:29:25;;;;;;;17.38;3.50;;;18.30;99.90;;;;;;5033033;28;20045;-87
2021/07/30 09:32:07;;;;;;;21.45;4.22;;;18.30;99.90;;;;;;5047016;28;20056;-87
2021/07/30 09:34:35;;;;;;;17.52;4.20;;;18.40;99.90;;;;;;5053178;28;20128;-87
2021/07/30 09:37:26;;;;;;;14.25;3.67;;;18.40;99.90;;;;;;5039427;28;20124;-87
2021/07/30 09:39:54;;;;;;;20.05;4.20;;;18.30;99.90;;;;;;5039768;28;20048;-87
2021/07/30 09:42:29;;;;;;;16.63;4.57;;;18.40;99.90;;;;;;5052355;28;20048;-88
2021/07/30 09:45:03;;;;;;;13.95;3.33;;;18.50;99.90;;;;;;5053905;28;20507;-87
2021/07/30 09:47:34;;;;;;;15.73;4.20;;;18.50;99.90;;;;;;5033400;28;20080;-88
2021/07/30 09:50:07;;;;;;;18.95;3.90;;;18.60;99.90;;;;;;5041037;28;20544;-87
2021/07/30 09:52:43;;;;;;;13.52;3.80;;;18.90;99.90;;;;;;5034827;28;20041;-88
2021/07/30 09:55:13;;;;;;;17.95;4.07;;;19.00;99.90;;;;;;5033473;28;20144;-87
2021/07/30 09:57:44;;;;;;;19.45;3.90;;;19.10;99.90;;;;;;5050995;28;20045;-87
2021/07/30 10:00:13;;;;;;;17.02;3.85;;;19.10;99.90;;;;;;5037443;28;20045;-86
2021/07/30 10:02:46;;;;;;;19.60;3.88;;;19.00;99.90;;;;;;5053610;28;20060;-87
2021/07/30 10:05:14;;;;;;;17.88;3.85;;;18.90;99.90;;;;;;5052059;28;20511;-87
2021/07/30 10:07:42;;;;;;;23.88;4.68;;;18.90;99.90;;;;;;5034227;28;20048;-87
2021/07/30 10:12:41;;;;;;;;;;;18.70;99.90;;;;;;5052440;28;20439;-88
2021/07/30 10:15:09;;;;;;;23.70;4.65;;;18.50;99.90;;;;;;5052387;28;20315;-88
2021/07/30 10:17:42;;;;;;;20.77;4.28;;;18.50;99.90;;;;;;5053236;28;20222;-87
2021/07/30 10:20:11;;;;;;;26.20;5.15;;;18.50;99.90;;;;;;5054293;28;20102;-86
2021/07/30 10:23:00;;;;;;;17.27;3.83;;;18.40;99.90;;;;;;5059471;28;20037;-86
2021/07/30 10:25:33;;;;;;;20.77;3.67;;;18.30;99.90;;;;;;5047531;28;20072;-87
2021/07/30 10:28:06;;;;;;;16.90;3.50;;;18.20;99.90;;;;;;5023703;28;20357;-87
2021/07/30 10:30:57;;;;;;;19.98;3.95;;;18.10;99.90;;;;;;5024305;28;20052;-86
2021/07/30 10:33:31;;;;;;;13.10;3.22;;;18.00;99.90;;;;;;5025438;28;20049;-87
2021/07/30 10:35:59;;;;;;;11.90;3.25;;;18.00;99.90;;;;;;5005432;28;20046;-86
2021/07/30 10:38:27;;;;;;;15.88;3.38;;;18.10;99.90;;;;;;5031864;28;20535;-86
2021/07/30 10:41:08;;;;;;;18.83;3.35;;;18.30;99.90;;;;;;5015755;28;20061;-87
2021/07/30 10:43:51;;;;;;;14.90;3.28;;;18.50;99.90;;;;;;5020261;28;20144;-86
2021/07/30 10:46:25;;;;;;;10.48;2.42;;;18.70;99.90;;;;;;5013679;28;20040;-87
2021/07/30 10:48:55;;;;;;;11.95;2.33;;;18.90;99.90;;;;;;5016716;28;20049;-86
2021/07/30 10:51:26;;;;;;;9.80;2.20;;;19.00;99.90;;;;;;5012792;28;21494;-87
2021/07/30 10:54:03;;;;;;;14.93;2.90;;;19.00;99.90;;;;;;5031426;28;20050;-87
2021/07/30 10:56:30;;;;;;;17.98;3.72;;;19.10;99.90;;;;;;5029062;28;20495;-87
2021/07/30 10:59:01;;;;;;;18.88;3.70;;;19.10;99.90;;;;;;5032440;28;20045;-85
2021/07/30 11:01:27;;;;;;;17.33;4.22;;;19.10;99.90;;;;;;5031398;28;20037;-84
2021/07/30 11:04:05;;;;;;;14.25;3.42;;;19.20;99.90;;;;;;5029775;28;20049;-85
2021/07/30 11:06:52;;;;;;;19.17;3.83;;;19.20;99.90;;;;;;5031432;28;20049;-85
2021/07/30 11:09:23;;;;;;;19.10;3.38;;;19.30;99.90;;;;;;5015804;28;20046;-84
2021/07/30 11:11:52;;;;;;;13.82;2.97;;;19.30;99.90;;;;;;5030495;28;20045;-85
2021/07/30 11:14:48;;;;;;;13.77;2.83;;;19.20;99.90;;;;;;5031576;28;20041;-84
2021/07/30 11:17:15;;;;;;;11.90;2.25;;;19.00;99.90;;;;;;5028423;28;20057;-84
2021/07/30 11:19:49;;;;;;;12.30;2.30;;;19.10;99.90;;;;;;5011556;28;20127;-84
2021/07/30 11:22:18;;;;;;;12.45;3.08;;;19.30;99.90;;;;;;5033805;28;20057;-84
2021/07/30 11:24:46;;;;;;;10.75;2.30;;;19.40;99.90;;;;;;5031336;28;20052;-84
2021/07/30 11:27:15;;;;;;;9.50;2.30;;;19.60;99.90;;;;;;5048435;28;20049;-86
2021/07/30 11:29:44;;;;;;;9.57;1.98;;;19.90;99.90;;;;;;5039402;28;20053;-88
2021/07/30 11:32:14;;;;;;;11.02;1.95;;;20.10;99.90;;;;;;5050658;28;20049;-85
2021/07/30 11:34:45;;;;;;;8.35;2.38;;;20.10;99.90;;;;;;5034816;28;20045;-85
2021/07/30 11:37:16;;;;;;;9.38;1.90;;;20.10;99.90;;;;;;5030454;28;20051;-86
2021/07/30 11:39:45;;;;;;;8.63;1.90;;;20.00;99.90;;;;;;5049124;28;20037;-85
2021/07/30 11:42:14;;;;;;;11.88;1.95;;;19.80;99.90;;;;;;5032413;28;20041;-87
2021/07/30 11:44:44;;;;;;;8.13;1.75;;;19.70;99.90;;;;;;5049609;28;20157;-85
2021/07/30 11:47:11;;;;;;;12.00;2.45;;;19.60;99.90;;;;;;5048973;28;20056;-85
2021/07/30 11:49:41;;;;;;;9.93;1.80;;;19.80;99.90;;;;;;5052018;28;20048;-85
2021/07/30 11:52:11;;;;;;;12.20;2.22;;;19.80;99.90;;;;;;5049466;28;20599;-86
2021/07/30 11:54:38;;;;;;;8.38;2.00;;;19.90;99.90;;;;;;5050017;28;20504;-84
2021/07/30 11:57:07;;;;;;;10.20;2.17;;;19.90;99.90;;;;;;5049532;28;20392;-85
2021/07/30 11:59:45;;;;;;;10.88;2.30;;;19.70;99.90;;;;;;5050416;28;20049;-85
2021/07/30 12:02:14;;;;;;;8.98;2.17;;;19.70;99.90;;;;;;5048727;28;20068;-85
2021/07/30 12:04:55;;;;;;;9.50;2.45;;;19.80;99.90;;;;;;5046818;28;20041;-85
2021/07/30 12:07:25;;;;;;;6.85;2.03;;;19.90;99.90;;;;;;5049310;28;20060;-85
2021/07/30 12:10:00;;;;;;;9.07;2.15;;;19.80;99.90;;;;;;5051004;28;20057;-85
2021/07/30 12:12:31;;;;;;;7.78;1.73;;;19.90;99.90;;;;;;5050110;28;20048;-86
2021/07/30 12:14:59;;;;;;;8.65;2.05;;;19.90;99.90;;;;;;5051077;28;20045;-86
2021/07/30 12:17:30;;;;;;;11.80;2.55;;;19.80;99.90;;;;;;5050993;28;20037;-85
2021/07/30 12:20:08;;;;;;;8.18;2.13;;;19.70;99.90;;;;;;5051584;28;20047;-85
2021/07/30 12:22:39;;;;;;;9.70;2.17;;;19.80;99.90;;;;;;5049767;28;20125;-85
2021/07/30 12:25:08;;;;;;;11.20;2.22;;;19.90;99.90;;;;;;5045928;28;20057;-85
2021/07/30 12:27:35;;;;;;;7.32;1.55;;;19.90;99.90;;;;;;5028704;28;20045;-84
2021/07/30 12:30:04;;;;;;;7.63;2.13;;;19.80;99.90;;;;;;5014775;28;20490;-85
2021/07/30 12:32:39;;;;;;;7.30;1.80;;;19.90;99.90;;;;;;5022315;28;20073;-85
2021/07/30 12:35:14;;;;;;;7.75;2.13;;;19.80;99.90;;;;;;5027513;28;20053;-85
2021/07/30 12:38:06;;;;;;;7.88;2.08;;;19.80;99.90;;;;;;5024427;28;20087;-85
2021/07/30 12:40:40;;;;;;;8.82;2.10;;;19.90;99.90;;;;;;5028663;28;20045;-84
2021/07/30 12:43:18;;;;;;;9.57;1.95;;;20.00;99.90;;;;;;5027778;28;20049;-85
2021/07/30 12:45:49;;;;;;;8.90;1.85;;;20.10;99.90;;;;;;5027532;28;20056;-84
2021/07/30 12:48:21;;;;;;;6.90;1.75;;;20.10;99.90;;;;;;5028823;28;20053;-84
2021/07/30 12:50:50;;;;;;;7.78;2.00;;;20.00;99.90;;;;;;5033420;28;20057;-85
2021/07/30 12:53:18;;;;;;;8.88;2.05;;;20.00;99.90;;;;;;5030549;28;20053;-85